Time;durP1;ratioP1;P1;durP2;ratioP2;P2;SDS_P1;SDS_P2;PMS_P1;PMS_P2;Temp;Humidity;BMP_temperature;BMP_pressure;BME280_temperature;BME280_humidity;BME280_pressure;Samples;Min_cycle;Max_cycle;Signal;HPM_P1;HPM_P2
2022/10/05 00:00:28;;;;;;;11.25;5.60;;;15.80;75.00;;;;;;5030278;28;20053;-77
2022/10/05 00:02:56;;;;;;;10.63;5.18;;;15.80;75.00;;;;;;5032423;28;20086;-77
2022/10/05 00:05:30;;;;;;;10.65;5.30;;;15.80;75.10;;;;;;5030936;28;20496;-77
2022/10/05 00:08:05;;;;;;;10.57;5.60;;;15.80;75.10;;;;;;5030560;28;20050;-77
2022/10/05 00:10:33;;;;;;;8.63;5.40;;;15.80;75.20;;;;;;5030499;28;20056;-77
2022/10/05 00:13:00;;;;;;;9.55;5.68;;;15.80;75.20;;;;;;5031171;28;20050;-77
2022/10/05 00:15:29;;;;;;;9.40;5.32;;;15.80;75.20;;;;;;5029592;28;20054;-77
2022/10/05 00:17:56;;;;;;;10.05;5.30;;;15.80;75.20;;;;;;5030930;28;20053;-77
2022/10/05 00:20:25;;;;;;;8.18;5.22;;;15.90;75.10;;;;;;5030289;28;20050;-77
2022/10/05 00:22:57;;;;;;;9.10;4.60;;;15.80;75.10;;;;;;5030614;28;20560;-77
2022/10/05 00:25:25;;;;;;;11.00;4.82;;;15.80;75.00;;;;;;5030550;28;20048;-77
2022/10/05 00:27:56;;;;;;;10.48;5.35;;;15.80;75.00;;;;;;5030317;28;20204;-77
2022/10/05 00:30:24;;;;;;;9.75;5.53;;;15.80;75.10;;;;;;5014053;28;20058;-77
2022/10/05 00:32:53;;;;;;;8.70;4.90;;;15.80;75.10;;;;;;5029387;28;20145;-77
2022/10/05 00:35:22;;;;;;;8.40;5.00;;;15.80;75.10;;;;;;5012366;28;20046;-77
2022/10/05 00:37:54;;;;;;;8.68;4.80;;;15.80;75.10;;;;;;5028624;28;20404;-78
2022/10/05 00:40:44;;;;;;;8.27;4.80;;;15.80;75.00;;;;;;5029363;28;20051;-77
2022/10/05 00:43:30;;;;;;;9.23;4.78;;;15.80;75.00;;;;;;5029862;28;20129;-77
2022/10/05 00:46:06;;;;;;;10.10;4.45;;;15.80;74.90;;;;;;5030180;28;20081;-77
2022/10/05 00:48:43;;;;;;;8.10;4.93;;;15.80;75.00;;;;;;5030159;28;20077;-77
2022/10/05 00:51:22;;;;;;;10.10;4.80;;;15.80;74.90;;;;;;5030294;28;21081;-77
2022/10/05 00:54:01;;;;;;;10.23;4.80;;;15.80;74.90;;;;;;5029827;28;20050;-77
2022/10/05 00:56:52;;;;;;;9.63;4.70;;;15.80;74.90;;;;;;5013916;28;20048;-77
2022/10/05 00:59:30;;;;;;;8.57;4.78;;;15.80;75.00;;;;;;5029948;28;20069;-77
2022/10/05 01:02:02;;;;;;;9.33;4.90;;;15.80;75.00;;;;;;5031424;28;20050;-77
2022/10/05 01:04:38;;;;;;;10.52;5.10;;;15.80;75.00;;;;;;5029904;28;20587;-77
2022/10/05 01:07:15;;;;;;;9.13;5.03;;;15.80;75.00;;;;;;5029913;28;20499;-77
2022/10/05 01:09:49;;;;;;;8.77;4.85;;;15.80;75.10;;;;;;5013382;28;20062;-77
2022/10/05 01:12:23;;;;;;;9.82;5.47;;;15.80;75.20;;;;;;5029170;28;20499;-77
2022/10/05 01:14:56;;;;;;;8.60;5.00;;;15.80;75.20;;;;;;5031616;28;20975;-77
2022/10/05 01:17:32;;;;;;;10.73;5.50;;;15.80;75.20;;;;;;5029842;28;20478;-77
2022/10/05 01:20:30;;;;;;;12.00;5.50;;;15.80;75.20;;;;;;5013102;28;20498;-77
2022/10/05 01:23:31;;;;;;;10.40;5.30;;;15.80;75.20;;;;;;5027858;28;20070;-77
2022/10/05 01:26:12;;;;;;;10.38;5.28;;;15.80;75.30;;;;;;5029790;28;20046;-77
2022/10/05 01:29:09;;;;;;;11.53;5.33;;;15.80;75.30;;;;;;5013524;28;20080;-77
2022/10/05 01:31:41;;;;;;;10.38;5.80;;;15.80;75.40;;;;;;5029745;28;20137;-77
2022/10/05 01:34:16;;;;;;;11.38;5.80;;;15.80;75.40;;;;;;5029634;28;20566;-77
2022/10/05 01:36:52;;;;;;;10.55;6.28;;;15.80;75.50;;;;;;5029614;28;20066;-77
2022/10/05 01:39:28;;;;;;;12.70;5.72;;;15.80;75.60;;;;;;5030419;28;20053;-77
2022/10/05 01:42:04;;;;;;;10.23;5.30;;;15.80;75.70;;;;;;5030725;28;21004;-77
2022/10/05 01:44:38;;;;;;;9.43;5.20;;;15.80;75.80;;;;;;5013427;28;20038;-77
2022/10/05 01:47:13;;;;;;;11.60;5.60;;;15.80;75.80;;;;;;5012835;28;20046;-77
2022/10/05 01:49:54;;;;;;;9.80;6.38;;;15.80;75.90;;;;;;5012455;28;20046;-77
2022/10/05 01:52:32;;;;;;;9.85;5.75;;;15.80;76.00;;;;;;5013280;28;20050;-77
2022/10/05 01:55:11;;;;;;;10.17;5.17;;;15.80;75.90;;;;;;5028619;28;20148;-77
2022/10/05 01:57:50;;;;;;;10.82;5.82;;;15.80;76.00;;;;;;5025918;28;20053;-77
2022/10/05 02:00:20;;;;;;;8.90;5.07;;;15.80;76.10;;;;;;4992664;28;21064;-77
2022/10/05 02:02:50;;;;;;;11.23;6.07;;;15.80;76.10;;;;;;5009369;28;20057;-77
2022/10/05 02:05:21;;;;;;;13.85;6.53;;;15.80;76.20;;;;;;5009589;28;20046;-77
2022/10/05 02:07:53;;;;;;;11.83;6.03;;;15.80;76.20;;;;;;5009533;28;20054;-77
2022/10/05 02:10:24;;;;;;;13.25;6.22;;;15.80;76.10;;;;;;5009146;28;20053;-77
2022/10/05 02:12:58;;;;;;;10.73;6.10;;;15.80;76.20;;;;;;4992503;28;20101;-77
2022/10/05 02:15:33;;;;;;;10.63;5.70;;;15.80;76.20;;;;;;5009313;28;20145;-77
2022/10/05 02:18:14;;;;;;;11.27;6.20;;;15.80;76.20;;;;;;5010729;28;20536;-77
2022/10/05 02:20:43;;;;;;;10.17;5.93;;;15.80;76.20;;;;;;5009131;28;20128;-77
2022/10/05 02:23:14;;;;;;;12.05;5.93;;;15.80;76.30;;;;;;5009278;28;20133;-77
2022/10/05 02:25:45;;;;;;;10.18;5.85;;;15.80;76.30;;;;;;5012687;28;20046;-78
2022/10/05 02:28:18;;;;;;;10.80;6.57;;;15.70;76.30;;;;;;5012548;28;20077;-77
2022/10/05 02:30:51;;;;;;;11.68;6.32;;;15.80;76.40;;;;;;5013081;28;20053;-77
2022/10/05 02:33:27;;;;;;;11.03;5.40;;;15.70;76.40;;;;;;5015745;28;20503;-77
2022/10/05 02:36:00;;;;;;;10.80;5.80;;;15.60;76.40;;;;;;5015579;28;20042;-77
2022/10/05 02:38:35;;;;;;;12.32;6.10;;;15.70;76.40;;;;;;5048770;28;20056;-77
2022/10/05 02:41:09;;;;;;;11.32;6.10;;;15.60;76.50;;;;;;5048656;28;20056;-77
2022/10/05 02:43:46;;;;;;;11.43;5.82;;;15.60;76.50;;;;;;5015780;28;20108;-77
2022/10/05 02:46:28;;;;;;;10.80;6.00;;;15.60;76.40;;;;;;5015428;28;20065;-77
2022/10/05 02:49:08;;;;;;;10.52;5.63;;;15.60;76.50;;;;;;5015523;28;20121;-77
2022/10/05 02:51:45;;;;;;;11.13;5.78;;;15.60;76.50;;;;;;5015815;28;20049;-77
2022/10/05 02:54:27;;;;;;;10.98;5.68;;;15.60;76.50;;;;;;5015209;28;21075;-77
2022/10/05 02:57:00;;;;;;;10.45;5.95;;;15.60;76.50;;;;;;5015620;28;20108;-77
2022/10/05 02:59:36;;;;;;;11.33;6.00;;;15.60;76.50;;;;;;5014948;28;20049;-77
2022/10/05 03:02:15;;;;;;;12.95;6.40;;;15.60;76.40;;;;;;5030885;28;20197;-77
2022/10/05 03:04:51;;;;;;;11.30;5.57;;;15.60;76.50;;;;;;5015175;28;21004;-77
2022/10/05 03:07:24;;;;;;;9.90;5.82;;;15.60;76.40;;;;;;5015712;28;20053;-78
2022/10/05 03:10:00;;;;;;;10.57;5.80;;;15.60;76.40;;;;;;5014884;28;20054;-77
2022/10/05 03:12:42;;;;;;;11.20;5.37;;;15.60;76.40;;;;;;5015313;28;20500;-78
2022/10/05 03:15:27;;;;;;;11.45;6.10;;;15.60;76.40;;;;;;5015149;28;20053;-78
2022/10/05 03:18:08;;;;;;;11.48;5.93;;;15.60;76.40;;;;;;5015312;28;20053;-77
2022/10/05 03:20:43;;;;;;;10.23;5.70;;;15.60;76.40;;;;;;5031283;28;20057;-77
2022/10/05 03:23:20;;;;;;;12.00;5.90;;;15.60;76.40;;;;;;5014982;28;20565;-77
2022/10/05 03:26:07;;;;;;;12.63;6.10;;;15.60;76.40;;;;;;5031587;28;20135;-77
2022/10/05 03:28:44;;;;;;;11.25;5.20;;;15.60;76.50;;;;;;5015037;28;20042;-77
2022/10/05 03:31:20;;;;;;;9.73;5.75;;;15.60;76.60;;;;;;5031356;28;20042;-77
2022/10/05 03:33:53;;;;;;;9.55;5.15;;;15.60;76.50;;;;;;5015087;28;20065;-77
2022/10/05 03:36:27;;;;;;;9.65;5.47;;;15.60;76.50;;;;;;5029094;28;20459;-77
2022/10/05 03:39:02;;;;;;;9.07;5.37;;;15.60;76.40;;;;;;5014490;28;20057;-77
2022/10/05 03:41:36;;;;;;;8.75;4.97;;;15.60;76.40;;;;;;5014735;28;20089;-77
2022/10/05 03:44:36;;;;;;;9.77;5.25;;;15.60;76.50;;;;;;5014661;28;20145;-77
2022/10/05 03:47:20;;;;;;;11.15;5.75;;;15.60;76.50;;;;;;4973805;28;20062;-77
2022/10/05 03:50:02;;;;;;;10.45;5.43;;;15.60;76.50;;;;;;5023971;28;20141;-77
2022/10/05 03:52:38;;;;;;;10.53;5.97;;;15.50;76.60;;;;;;5030730;28;20046;-77
2022/10/05 03:55:16;;;;;;;10.90;6.07;;;15.50;76.60;;;;;;5018670;28;20030;-79
2022/10/05 03:57:44;;;;;;;10.70;6.15;;;15.60;76.60;;;;;;5014644;28;21112;-78
2022/10/05 04:00:15;;;;;;;10.82;5.10;;;15.60;76.50;;;;;;5014503;28;20104;-78
2022/10/05 04:02:52;;;;;;;9.73;5.82;;;15.50;76.60;;;;;;5014483;28;20145;-77
2022/10/05 04:05:25;;;;;;;11.53;5.93;;;15.50;76.60;;;;;;5014838;28;20141;-77
2022/10/05 04:07:56;;;;;;;11.02;5.60;;;15.50;76.60;;;;;;5014499;28;20132;-77
2022/10/05 04:10:27;;;;;;;10.10;6.10;;;15.50;76.70;;;;;;5013021;28;20426;-77
2022/10/05 04:12:59;;;;;;;11.20;6.13;;;15.50;76.70;;;;;;5047118;28;20046;-77
2022/10/05 04:15:31;;;;;;;9.57;5.57;;;15.50;76.70;;;;;;5014567;28;20053;-77
2022/10/05 04:18:03;;;;;;;11.43;6.07;;;15.50;76.70;;;;;;5014254;28;20053;-77
2022/10/05 04:20:39;;;;;;;12.40;6.47;;;15.50;76.80;;;;;;5014192;28;20050;-77
2022/10/05 04:23:17;;;;;;;9.88;5.95;;;15.50;76.80;;;;;;5030466;28;20053;-77
2022/10/05 04:25:48;;;;;;;9.80;5.60;;;15.50;76.90;;;;;;5014184;28;20069;-77
2022/10/05 04:28:24;;;;;;;12.85;6.20;;;15.50;76.90;;;;;;5014183;28;20546;-77
2022/10/05 04:30:53;;;;;;;11.90;6.43;;;15.50;77.00;;;;;;5014024;28;20053;-77
2022/10/05 04:33:21;;;;;;;10.93;6.40;;;15.40;77.00;;;;;;5013716;28;20476;-77
2022/10/05 04:36:07;;;;;;;11.32;6.43;;;15.40;77.10;;;;;;5013768;28;20552;-77
2022/10/05 04:38:52;;;;;;;11.95;6.30;;;15.50;77.00;;;;;;5013374;28;20053;-77
2022/10/05 04:41:48;;;;;;;11.65;6.55;;;15.40;77.00;;;;;;5013851;28;20042;-77
2022/10/05 04:45:06;;;;;;;11.17;5.97;;;15.50;76.90;;;;;;5013469;28;20101;-77
2022/10/05 04:47:53;;;;;;;11.55;6.13;;;15.40;77.10;;;;;;5029916;28;20062;-77
2022/10/05 04:50:33;;;;;;;12.75;6.70;;;15.40;77.10;;;;;;5029544;28;20119;-77
2022/10/05 04:53:20;;;;;;;12.40;6.40;;;15.40;77.00;;;;;;5029821;28;20057;-77
2022/10/05 04:55:54;;;;;;;11.25;6.30;;;15.40;77.00;;;;;;5029766;28;20046;-77
2022/10/05 04:58:41;;;;;;;12.73;5.90;;;15.40;77.00;;;;;;5029412;28;20057;-77
2022/10/05 05:01:28;;;;;;;10.70;5.78;;;15.40;77.00;;;;;;5026245;28;20140;-77
2022/10/05 05:04:12;;;;;;;11.45;6.00;;;15.40;77.10;;;;;;5019575;28;20077;-77
2022/10/05 05:06:46;;;;;;;10.57;5.85;;;15.40;77.10;;;;;;5016833;28;20057;-77
2022/10/05 05:09:46;;;;;;;12.40;6.85;;;15.40;77.10;;;;;;5003158;28;20050;-77
2022/10/05 05:12:24;;;;;;;12.43;6.43;;;15.40;77.10;;;;;;4992688;28;20050;-77
2022/10/05 05:15:11;;;;;;;11.07;6.53;;;15.40;77.10;;;;;;5009466;28;20125;-77
2022/10/05 05:17:53;;;;;;;10.50;6.35;;;15.40;77.10;;;;;;4996446;28;20660;-77
2022/10/05 05:20:25;;;;;;;12.18;6.03;;;15.40;77.00;;;;;;5003758;28;20081;-77
2022/10/05 05:22:59;;;;;;;11.73;6.43;;;15.30;77.00;;;;;;5019189;28;20046;-77
2022/10/05 05:25:36;;;;;;;10.00;5.90;;;15.30;77.10;;;;;;5022459;28;20569;-77
2022/10/05 05:28:17;;;;;;;12.50;7.05;;;15.30;77.20;;;;;;5012136;28;20046;-77
2022/10/05 05:30:48;;;;;;;13.05;7.38;;;15.30;77.20;;;;;;5011037;28;20049;-77
2022/10/05 05:33:22;;;;;;;11.43;6.55;;;15.30;77.20;;;;;;5025600;28;20105;-77
2022/10/05 05:36:24;;;;;;;11.45;6.53;;;15.30;77.20;;;;;;5026505;28;20077;-77
2022/10/05 05:39:13;;;;;;;13.00;6.03;;;15.30;77.30;;;;;;5008737;28;20492;-77
2022/10/05 05:41:50;;;;;;;12.13;6.45;;;15.20;77.50;;;;;;5021634;28;20049;-76
2022/10/05 05:44:23;;;;;;;13.20;7.20;;;15.20;77.60;;;;;;5001537;28;20052;-77
2022/10/05 05:46:55;;;;;;;12.65;7.40;;;15.20;77.70;;;;;;5003430;28;20042;-77
2022/10/05 05:49:32;;;;;;;10.35;6.57;;;15.20;77.90;;;;;;5000933;28;20487;-77
2022/10/05 05:52:03;;;;;;;10.67;6.83;;;15.20;78.00;;;;;;5017441;28;20049;-77
2022/10/05 05:54:35;;;;;;;11.70;7.32;;;15.20;78.00;;;;;;5018064;28;20054;-77
2022/10/05 05:57:13;;;;;;;11.38;7.10;;;15.20;78.20;;;;;;5017360;28;20059;-77
2022/10/05 06:00:02;;;;;;;11.95;6.82;;;15.10;78.20;;;;;;5005497;28;20124;-77
2022/10/05 06:02:45;;;;;;;15.40;7.85;;;15.20;78.20;;;;;;5025188;28;20054;-77
2022/10/05 06:05:30;;;;;;;12.30;7.83;;;15.10;78.40;;;;;;5027234;28;20050;-77
2022/10/05 06:08:01;;;;;;;12.45;7.18;;;15.10;78.30;;;;;;5025874;28;20635;-77
2022/10/05 06:10:40;;;;;;;12.77;7.72;;;15.10;78.30;;;;;;5022994;28;20085;-77
2022/10/05 06:13:16;;;;;;;12.25;7.13;;;15.10;78.30;;;;;;5018993;28;20089;-76
2022/10/05 06:15:48;;;;;;;11.63;6.75;;;15.10;78.30;;;;;;5020124;28;20053;-77
2022/10/05 06:18:18;;;;;;;12.73;7.60;;;15.00;78.30;;;;;;4994741;28;20708;-77
2022/10/05 06:20:53;;;;;;;14.18;7.90;;;15.10;78.30;;;;;;5015296;28;20492;-77
2022/10/05 06:23:24;;;;;;;13.38;8.32;;;15.10;78.20;;;;;;4998252;28;20505;-76
2022/10/05 06:26:07;;;;;;;13.43;7.30;;;15.10;78.20;;;;;;4998324;28;20137;-77
2022/10/05 06:28:36;;;;;;;12.38;7.22;;;15.10;78.20;;;;;;5018012;28;20042;-77
2022/10/05 06:31:18;;;;;;;11.30;7.20;;;15.00;78.10;;;;;;5001188;28;20145;-76
2022/10/05 06:33:51;;;;;;;12.55;7.40;;;15.00;78.20;;;;;;5018917;28;20058;-76
2022/10/05 06:36:38;;;;;;;11.18;7.45;;;15.00;78.10;;;;;;5020922;28;20679;-76
2022/10/05 06:39:29;;;;;;;12.55;7.10;;;15.00;78.10;;;;;;5008639;28;20058;-76
2022/10/05 06:42:18;;;;;;;11.43;7.13;;;15.00;78.10;;;;;;5034123;28;20054;-76
2022/10/05 06:45:25;;;;;;;11.57;7.00;;;15.00;78.20;;;;;;4992784;28;20089;-76
2022/10/05 06:48:27;;;;;;;13.65;6.63;;;15.00;78.10;;;;;;5028391;28;20108;-77
2022/10/05 06:51:22;;;;;;;13.98;6.90;;;15.00;78.10;;;;;;5016567;28;20471;-77
2022/10/05 06:54:15;;;;;;;11.90;6.90;;;15.00;78.10;;;;;;4993467;28;20476;-77
2022/10/05 06:56:48;;;;;;;10.95;7.15;;;15.00;78.10;;;;;;5009668;28;20524;-77
2022/10/05 06:59:23;;;;;;;14.07;7.90;;;15.00;78.10;;;;;;5005313;28;20523;-76
2022/10/05 07:01:57;;;;;;;13.25;7.30;;;15.00;78.10;;;;;;4997816;28;20148;-77
2022/10/05 07:04:42;;;;;;;12.75;7.47;;;15.00;78.00;;;;;;4999985;28;20132;-77
2022/10/05 07:07:20;;;;;;;11.20;7.20;;;15.00;78.00;;;;;;5015139;28;20050;-77
2022/10/05 07:10:00;;;;;;;8.88;6.47;;;15.10;78.00;;;;;;5001163;28;20108;-77
2022/10/05 07:12:43;;;;;;;11.33;6.70;;;15.10;77.90;;;;;;5024577;28;20526;-77
2022/10/05 07:15:27;;;;;;;11.32;6.28;;;15.10;77.60;;;;;;5011909;28;20492;-77
2022/10/05 07:18:06;;;;;;;10.68;6.25;;;15.10;77.40;;;;;;5028549;28;20049;-78
2022/10/05 07:20:39;;;;;;;13.15;6.13;;;15.20;77.20;;;;;;5011679;28;20152;-78
2022/10/05 07:23:32;;;;;;;9.70;5.80;;;15.20;77.20;;;;;;5001664;28;20501;-77
2022/10/05 07:26:05;;;;;;;9.53;6.30;;;15.20;77.00;;;;;;5002273;28;20052;-76
2022/10/05 07:28:42;;;;;;;9.93;6.07;;;15.20;77.00;;;;;;5019272;28;20529;-77
2022/10/05 07:31:13;;;;;;;12.23;6.45;;;15.20;76.90;;;;;;5018814;28;20153;-77
2022/10/05 07:33:46;;;;;;;9.23;6.15;;;15.20;76.90;;;;;;5017879;28;20209;-76
2022/10/05 07:39:13;;;;;;;9.60;5.63;;;15.20;76.80;;;;;;5018075;28;20047;-77
2022/10/05 07:41:44;;;;;;;8.93;5.88;;;15.20;77.00;;;;;;5004789;28;20456;-77
2022/10/05 07:44:18;;;;;;;10.25;6.40;;;15.20;77.00;;;;;;5004329;28;20062;-76
2022/10/05 07:46:53;;;;;;;9.40;6.10;;;15.30;77.10;;;;;;5029037;28;20054;-77
2022/10/05 07:49:36;;;;;;;9.00;6.15;;;15.30;77.10;;;;;;5029908;28;20542;-77
2022/10/05 07:52:09;;;;;;;9.53;6.70;;;15.30;77.20;;;;;;5004567;28;20523;-77
2022/10/05 07:54:47;;;;;;;9.13;6.07;;;15.30;77.10;;;;;;5025766;28;20038;-78
2022/10/05 07:57:23;;;;;;;9.57;6.15;;;15.30;77.10;;;;;;5007557;28;20046;-79
2022/10/05 07:59:58;;;;;;;9.35;6.15;;;15.30;77.20;;;;;;5002559;28;20042;-78
2022/10/05 08:02:28;;;;;;;10.38;6.03;;;15.30;77.20;;;;;;5002696;28;20136;-80
2022/10/05 08:05:02;;;;;;;11.17;6.17;;;15.30;77.10;;;;;;5018799;28;20157;-79
2022/10/05 08:07:31;;;;;;;11.88;6.75;;;15.30;77.20;;;;;;5017079;28;20201;-79
2022/10/05 08:10:13;;;;;;;10.30;6.13;;;15.30;77.20;;;;;;5023968;28;20065;-80
2022/10/05 08:12:54;;;;;;;10.52;6.70;;;15.30;77.30;;;;;;5009821;28;20141;-79
2022/10/05 08:15:25;;;;;;;11.50;6.10;;;15.40;77.30;;;;;;5029831;28;20050;-79
2022/10/05 08:17:55;;;;;;;10.80;7.20;;;15.40;77.20;;;;;;5023813;28;20081;-77
2022/10/05 08:20:32;;;;;;;10.02;5.90;;;15.40;77.20;;;;;;5017078;28;20054;-79
2022/10/05 08:23:04;;;;;;;10.18;6.00;;;15.50;77.10;;;;;;5019801;28;20097;-77
2022/10/05 08:25:41;;;;;;;9.68;6.07;;;15.50;77.00;;;;;;5023315;28;20137;-77
2022/10/05 08:28:17;;;;;;;10.38;6.60;;;15.50;77.10;;;;;;5028430;28;20507;-78
2022/10/05 08:30:59;;;;;;;10.47;5.50;;;15.60;76.80;;;;;;5022576;28;20046;-79
2022/10/05 08:33:31;;;;;;;9.93;5.80;;;15.50;76.90;;;;;;5025430;28;20058;-77
2022/10/05 08:36:06;;;;;;;9.00;5.75;;;15.60;76.80;;;;;;5011060;28;20058;-78
2022/10/05 08:38:34;;;;;;;8.73;5.13;;;15.60;76.50;;;;;;5009019;28;20146;-78
2022/10/05 08:41:32;;;;;;;9.15;5.45;;;15.60;76.50;;;;;;5015269;28;20057;-77
2022/10/05 08:44:44;;;;;;;10.13;5.80;;;15.60;76.60;;;;;;5022749;28;20060;-77
2022/10/05 08:47:24;;;;;;;9.45;5.18;;;15.60;76.30;;;;;;5027593;28;20053;-76
2022/10/05 08:50:17;;;;;;;10.25;6.05;;;15.60;76.30;;;;;;5018180;28;20144;-76
2022/10/05 08:53:23;;;;;;;9.82;5.63;;;15.60;76.40;;;;;;5026226;28;20467;-76
2022/10/05 08:56:11;;;;;;;9.10;6.00;;;15.80;76.00;;;;;;5029974;28;20163;-76
2022/10/05 08:59:05;;;;;;;8.53;5.43;;;15.80;76.10;;;;;;5021949;28;20054;-76
2022/10/05 09:01:48;;;;;;;9.18;5.40;;;15.80;75.80;;;;;;5023991;28;20116;-76
2022/10/05 09:04:38;;;;;;;9.57;5.60;;;15.80;75.70;;;;;;5012309;28;20054;-76
2022/10/05 09:07:15;;;;;;;9.57;5.57;;;15.80;75.60;;;;;;5017712;28;20454;-77
2022/10/05 09:10:12;;;;;;;8.73;4.70;;;15.80;75.70;;;;;;5016835;28;20058;-76
2022/10/05 09:13:17;;;;;;;7.13;4.73;;;15.80;75.60;;;;;;5019346;28;20057;-76
2022/10/05 09:16:06;;;;;;;6.85;4.70;;;15.80;75.60;;;;;;5042054;28;20062;-77
2022/10/05 09:19:02;;;;;;;8.23;4.45;;;15.90;75.40;;;;;;5011338;28;20116;-77
2022/10/05 09:21:41;;;;;;;7.28;4.20;;;15.90;75.20;;;;;;5016527;28;20046;-77
2022/10/05 09:24:27;;;;;;;7.18;4.38;;;15.90;75.30;;;;;;5001062;28;20054;-77
2022/10/05 09:27:04;;;;;;;7.60;4.40;;;15.90;75.20;;;;;;5027943;28;20050;-77
2022/10/05 09:29:58;;;;;;;7.30;4.38;;;16.00;75.00;;;;;;5017014;28;20058;-76
2022/10/05 09:32:43;;;;;;;7.03;4.50;;;16.00;74.80;;;;;;5013009;28;20142;-76
2022/10/05 09:35:29;;;;;;;6.88;3.97;;;16.00;74.50;;;;;;5019247;28;20671;-76
2022/10/05 09:38:20;;;;;;;7.28;4.35;;;16.00;74.70;;;;;;5018347;28;20049;-76
2022/10/05 09:41:30;;;;;;;7.87;4.33;;;16.00;74.80;;;;;;5019604;28;20057;-76
2022/10/05 09:44:47;;;;;;;6.63;4.10;;;16.00;74.30;;;;;;5005075;28;20454;-77
2022/10/05 09:47:46;;;;;;;7.15;4.38;;;16.00;74.10;;;;;;4991719;28;20101;-76
2022/10/05 09:51:04;;;;;;;7.68;4.32;;;16.10;74.20;;;;;;5018897;28;20066;-77
2022/10/05 09:54:17;;;;;;;6.40;4.00;;;16.10;73.90;;;;;;5017311;28;20095;-77
2022/10/05 09:57:10;;;;;;;6.43;4.47;;;16.10;73.60;;;;;;4990474;28;20054;-76
2022/10/05 10:00:15;;;;;;;8.30;4.43;;;16.10;73.70;;;;;;5024046;28;20068;-77
2022/10/05 10:03:25;;;;;;;7.43;4.40;;;16.10;74.10;;;;;;5025734;28;20139;-77
2022/10/05 10:06:16;;;;;;;8.15;4.70;;;16.10;73.80;;;;;;5016537;28;20443;-76
2022/10/05 10:09:03;;;;;;;6.50;4.25;;;16.10;73.60;;;;;;5023452;28;20054;-77
2022/10/05 10:11:44;;;;;;;6.30;4.30;;;16.10;73.80;;;;;;5029776;28;20072;-78
2022/10/05 10:14:48;;;;;;;6.57;4.70;;;16.10;73.70;;;;;;5022336;28;20042;-78
2022/10/05 10:18:01;;;;;;;6.35;4.80;;;16.10;73.70;;;;;;5010901;28;20568;-77
2022/10/05 10:20:44;;;;;;;6.93;4.43;;;16.10;73.80;;;;;;5013782;28;20504;-76
2022/10/05 10:23:37;;;;;;;7.00;4.63;;;16.20;73.20;;;;;;5025735;28;20064;-77
2022/10/05 10:26:46;;;;;;;6.33;4.53;;;16.20;73.30;;;;;;5029336;28;20153;-77
2022/10/05 10:29:41;;;;;;;6.22;4.10;;;16.20;73.50;;;;;;5043171;28;20050;-77
2022/10/05 10:32:27;;;;;;;6.20;4.53;;;16.20;73.70;;;;;;5016825;28;20051;-77
2022/10/05 10:35:17;;;;;;;6.78;4.28;;;16.20;73.60;;;;;;5023118;28;20042;-77
2022/10/05 10:38:27;;;;;;;7.43;4.88;;;16.20;73.70;;;;;;5005482;28;20065;-77
2022/10/05 10:41:34;;;;;;;7.10;4.90;;;16.20;73.10;;;;;;5024554;28;20050;-77
2022/10/05 10:44:36;;;;;;;7.25;4.95;;;16.30;73.00;;;;;;5011891;28;20388;-77
2022/10/05 10:47:54;;;;;;;7.00;5.00;;;16.20;73.20;;;;;;5045544;28;20137;-77
2022/10/05 10:50:55;;;;;;;6.22;4.95;;;16.30;72.80;;;;;;5031176;28;20050;-77
2022/10/05 10:54:02;;;;;;;7.63;4.50;;;16.40;72.30;;;;;;5032900;28;20054;-77
2022/10/05 10:56:46;;;;;;;5.80;4.23;;;16.40;72.60;;;;;;5014621;28;20057;-77
2022/10/05 10:59:56;;;;;;;6.55;4.10;;;16.40;72.50;;;;;;5032457;28;20050;-77
2022/10/05 11:02:59;;;;;;;7.55;4.60;;;16.40;72.20;;;;;;5032693;28;20057;-77
2022/10/05 11:05:37;;;;;;;6.32;4.10;;;16.40;72.30;;;;;;5032500;28;20061;-77
2022/10/05 11:08:39;;;;;;;5.32;3.90;;;16.40;72.30;;;;;;5014396;28;20042;-77
2022/10/05 11:11:23;;;;;;;6.23;4.40;;;16.40;72.00;;;;;;5002823;28;20603;-77
2022/10/05 11:14:29;;;;;;;6.80;4.15;;;16.40;72.10;;;;;;5019847;28;20141;-76
2022/10/05 11:17:30;;;;;;;6.15;4.00;;;16.40;72.00;;;;;;5028649;28;20504;-77
2022/10/05 11:20:24;;;;;;;6.47;4.53;;;16.40;72.50;;;;;;5019588;28;20579;-79
2022/10/05 11:23:15;;;;;;;6.63;4.03;;;16.50;71.90;;;;;;5020033;28;20054;-77
2022/10/05 11:25:57;;;;;;;5.60;4.00;;;16.50;72.00;;;;;;5030726;28;20087;-77
2022/10/05 11:28:56;;;;;;;5.88;3.72;;;16.50;72.10;;;;;;5027124;28;20061;-76
2022/10/05 11:32:05;;;;;;;6.55;4.18;;;16.60;72.00;;;;;;5018382;28;20154;-76
2022/10/05 11:34:50;;;;;;;5.45;3.55;;;16.60;72.30;;;;;;4979023;28;20671;-77
2022/10/05 11:37:57;;;;;;;5.65;3.28;;;16.60;72.30;;;;;;4981851;28;20051;-77
2022/10/05 11:40:57;;;;;;;8.67;3.60;;;16.60;72.60;;;;;;5017390;28;20073;-77
2022/10/05 11:44:11;;;;;;;7.45;3.28;;;16.70;72.10;;;;;;5003494;28;20590;-79
2022/10/05 11:46:48;;;;;;;5.40;3.22;;;16.70;71.90;;;;;;5024059;28;20050;-78
2022/10/05 11:49:35;;;;;;;6.50;3.20;;;16.80;71.20;;;;;;5012250;28;20064;-78
2022/10/05 11:52:08;;;;;;;4.97;3.10;;;16.80;71.20;;;;;;5031111;28;20057;-79
2022/10/05 11:55:05;;;;;;;5.30;3.23;;;16.80;71.30;;;;;;5028805;28;20077;-78
2022/10/05 11:57:41;;;;;;;5.63;3.28;;;16.80;71.50;;;;;;5026767;28;20310;-78
2022/10/05 12:00:17;;;;;;;5.07;3.05;;;16.80;71.10;;;;;;5026158;28;20055;-78
2022/10/05 12:03:09;;;;;;;5.97;3.20;;;16.80;71.60;;;;;;5010382;28;20265;-77
2022/10/05 12:05:47;;;;;;;5.40;3.15;;;16.80;72.00;;;;;;4974477;28;20484;-78
2022/10/05 12:08:25;;;;;;;4.80;3.10;;;16.70;72.30;;;;;;5009961;28;20051;-78
2022/10/05 12:11:04;;;;;;;5.18;3.50;;;16.80;72.60;;;;;;5010322;28;20541;-79
2022/10/05 12:13:40;;;;;;;7.30;3.33;;;16.80;72.70;;;;;;5010192;28;20047;-78
2022/10/05 12:16:16;;;;;;;5.95;3.38;;;16.80;72.00;;;;;;5012121;28;20070;-80
2022/10/05 12:18:49;;;;;;;7.22;3.92;;;16.80;72.00;;;;;;5011812;28;20081;-78
2022/10/05 12:21:27;;;;;;;5.20;3.40;;;16.90;71.50;;;;;;5009619;28;20471;-78
2022/10/05 12:23:58;;;;;;;6.32;3.90;;;16.90;71.80;;;;;;5019050;28;20050;-78
2022/10/05 12:26:29;;;;;;;6.95;3.80;;;16.90;71.70;;;;;;5019847;28;20098;-78
2022/10/05 12:29:06;;;;;;;6.07;4.20;;;16.80;72.10;;;;;;5027238;28;20050;-77
2022/10/05 12:31:40;;;;;;;7.93;3.85;;;16.90;71.90;;;;;;5027786;28;20050;-77
2022/10/05 12:34:16;;;;;;;7.70;3.80;;;16.80;72.00;;;;;;5016438;28;20050;-78
2022/10/05 12:36:49;;;;;;;6.03;3.72;;;16.90;72.30;;;;;;5010449;28;20058;-79
2022/10/05 12:39:23;;;;;;;7.47;4.10;;;16.90;72.50;;;;;;5010028;28;20494;-78
2022/10/05 12:42:02;;;;;;;8.00;4.30;;;16.90;72.20;;;;;;5018110;28;20125;-79
2022/10/05 12:44:53;;;;;;;6.38;4.07;;;16.90;72.50;;;;;;5015615;28;20077;-77
2022/10/05 12:47:27;;;;;;;6.40;3.70;;;16.90;72.90;;;;;;5018163;28;20137;-78
2022/10/05 12:50:14;;;;;;;6.75;4.15;;;16.90;72.50;;;;;;5022833;28;20042;-76
2022/10/05 12:52:57;;;;;;;6.45;4.28;;;16.90;72.50;;;;;;5017444;28;20078;-78
2022/10/05 12:55:29;;;;;;;7.32;4.50;;;16.90;72.40;;;;;;5018686;28;20476;-77
2022/10/05 12:58:05;;;;;;;7.57;4.40;;;17.00;72.30;;;;;;5027135;28;20545;-76
2022/10/05 13:00:37;;;;;;;7.00;4.50;;;17.00;72.30;;;;;;5019365;28;20693;-76
2022/10/05 13:03:14;;;;;;;6.20;3.97;;;17.00;72.10;;;;;;5017809;28;20176;-78
2022/10/05 13:05:49;;;;;;;8.52;4.47;;;17.00;72.20;;;;;;5034296;28;20598;-77
2022/10/05 13:08:24;;;;;;;6.82;4.40;;;17.00;72.20;;;;;;5016323;28;20579;-76
2022/10/05 13:10:56;;;;;;;6.95;4.30;;;17.00;72.10;;;;;;5017252;28;20476;-73
2022/10/05 13:13:37;;;;;;;7.43;4.13;;;17.00;72.10;;;;;;5026485;28;20127;-75
2022/10/05 13:16:16;;;;;;;5.88;4.00;;;17.10;71.50;;;;;;5010034;28;20164;-75
2022/10/05 13:18:57;;;;;;;6.78;3.67;;;17.10;71.50;;;;;;5012702;28;20806;-76
2022/10/05 13:21:33;;;;;;;6.70;3.63;;;17.10;71.80;;;;;;5018040;28;20047;-76
2022/10/05 13:24:11;;;;;;;7.20;4.10;;;17.10;72.10;;;;;;4996620;28;20500;-76
2022/10/05 13:26:41;;;;;;;7.07;3.70;;;17.20;71.60;;;;;;5025436;28;20054;-75
2022/10/05 13:29:22;;;;;;;5.38;3.40;;;17.20;71.80;;;;;;5027443;28;20045;-76
2022/10/05 13:31:57;;;;;;;7.53;3.88;;;17.20;72.40;;;;;;5010344;28;20046;-76
2022/10/05 13:34:30;;;;;;;7.35;3.55;;;17.20;72.20;;;;;;5026930;28;20042;-76
2022/10/05 13:37:06;;;;;;;6.40;3.38;;;17.20;72.00;;;;;;5027228;28;20472;-76
2022/10/05 13:39:44;;;;;;;8.57;3.47;;;17.20;72.30;;;;;;5027185;28;20054;-76
2022/10/05 13:42:15;;;;;;;8.25;3.60;;;17.20;72.40;;;;;;5012289;28;20152;-76
2022/10/05 13:44:47;;;;;;;5.63;3.30;;;17.30;72.30;;;;;;5029723;28;20057;-76
2022/10/05 13:47:22;;;;;;;8.25;3.53;;;17.40;72.00;;;;;;5029523;28;20236;-76
2022/10/05 13:49:54;;;;;;;5.07;3.20;;;17.40;71.70;;;;;;5029838;28;20085;-76
2022/10/05 13:52:32;;;;;;;5.70;3.40;;;17.40;71.70;;;;;;5030230;28;20113;-77
2022/10/05 13:55:06;;;;;;;6.75;3.42;;;17.40;71.80;;;;;;5030164;28;20085;-77
2022/10/05 13:57:48;;;;;;;8.27;3.97;;;17.40;71.50;;;;;;5012237;28;20139;-76